Wednesday, July 23, 2014
12:01 UTC
  |  Log In   |  Register Free
Airport Search:

Heart Of Georgia Regional Airport
(KEZM)

Heart Of Georgia Regional Airport Diagram
No Airport Diagram Available

FAA data valid effective May 29, 2014 until July 24, 2014 (unless otherwise noted).

 
 
 
 
 
 
 
 
 
 
 
 
 
 

Current Aviation Weather for Heart Of Georgia Regional Airport (KEZM)

The most recent METAR observation for KEZM was updated at: 1035 UTC
METAR Summary (Translated METAR)
KEZM
231035Z AUTO 00000KT 1 1/2SM BR VV007 22/22 A3009 RMK AO2 VIS 1/2V4 T02150215
KDBN
(22.1 nm NE from KEZM)
231135Z AUTO 00000KT 4SM BR SCT007 21/21 A3010 RMK AO2
TAF Summary (Translated TAF)
KWRB
(34.6 nm NW from KEZM)
2305/2411 VRB06KT 9999 SCT030 BKN100 QNH3006INS BECMG 2312/2313 16009KT 9999 VCSH SCT050 SCT100 QNH2999INS TEMPO 2319/2324 16010G15KT 6000 -TSRA BKN020CB BECMG 2404/2405 VRB06KT 8000 BR SCT005 SCT030 BKN120 QNH3002INS TEMPO 2409/2411 3200 BR TX31/2320Z TN21/2310Z
  Airport Weather Conditions for KEZM

 Current Weather at EZM
71° F
Fog/Mist
North winds at 0.0 mph
EZM NOAA Radar

Pressure: 30.09 in
Humidity: 100%
Wind: Calm
Dew Point: 70.7°F
Visibility: 1.50 mi


Airport Weather Forecast for KEZM

Translated METAR and TAF for KEZM
Translated METAR for KEZM (1154 UTC 23 July 2014)
found at http://aviationweather.gov/adds/metars/
 
METAR text: KEZM 231135Z AUTO 00000KT 5SM BR OVC004 22/22 A3011 RMK AO2 T02200220
Conditions at: KEZM (EASTMAN , GA, US) observed 1135 UTC 23 July 2014
Temperature: 22.0°C (72°F)
Dewpoint: 22.0°C (72°F) [RH = 100%]
Pressure (altimeter): 30.11 inches Hg (1019.7 mb)
Winds: calm
Visibility: 5 miles (8 km)
Ceiling: 400 feet AGL
Clouds: overcast cloud deck at 400 feet AGL
Weather: BR  (mist)
Translated TAF for KEZM

There is no translated TAF available for this airport

Find All Airport Services Find A Hotel Find A Rental Car Find A Golf Course Find A Restaurant $100 Hamburger



FBO's on the Field
FBO Company Facility Photos Services Transportation Aviation Fuel Prices: Prices include tax
Catering Weather Repair Courtesy Rental Type 100LL JetA JetA+ MOGAS 8087
 
Heart of Georgia Regional Airport

This FBO has not yet been rated
FS:Phillips66
Last Updated: Jun-23
Login to update fuel prices
SS:
Contact Heart of Georgia Regional AirportMore FBO Information
 
Add another FBO Facility Photos Catering Weather Repair Courtesy Rental Type 100LL JetA JetA+ MOGAS 8087
Services Transportation Aviation Fuel Prices: Prices include tax


GlobalAir.com Airport Resource Center model-print
model-print
model-print
model-print